Time;durP1;ratioP1;P1;durP2;ratioP2;P2;SDS_P1;SDS_P2;PMS_P1;PMS_P2;Temp;Humidity;BMP_temperature;BMP_pressure;BME280_temperature;BME280_humidity;BME280_pressure;Samples;Min_cycle;Max_cycle;Signal;HPM_P1;HPM_P2
2021/09/14 00:00:07;;;;;;;;;;;23.00;97.00;22.90;99338.00;;;;348690;27;82462;-89
2021/09/14 00:00:19;;;;;;;;;;;23.00;97.00;22.90;99332.00;;;;348230;27;91418;-90
2021/09/14 00:00:31;;;;;;;;;;;22.90;97.00;22.90;99329.00;;;;346060;28;83473;-89
2021/09/14 00:00:42;;;;;;;;;;;22.90;97.00;22.90;99337.00;;;;348518;27;90586;-89
2021/09/14 00:00:54;;;;;;;;;;;22.90;97.00;22.90;99339.00;;;;346115;28;83419;-89
2021/09/14 00:01:07;;;;;;;;;;;22.90;97.00;22.90;99335.00;;;;348597;27;87900;-89
2021/09/14 00:01:19;;;;;;;;;;;23.00;97.00;22.90;99336.00;;;;350372;27;82505;-89
2021/09/14 00:01:31;;;;;;;;;;;22.90;97.00;22.90;99332.00;;;;348548;27;90352;-90
2021/09/14 00:01:43;;;;;;;;;;;22.90;97.00;23.00;99330.00;;;;345115;28;83226;-89
2021/09/14 00:01:55;;;;;;;;;;;22.90;97.00;23.10;99332.00;;;;348282;27;91727;-89
2021/09/14 00:02:07;;;;;;;;;;;23.00;97.00;23.10;99337.00;;;;347586;28;82410;-89
2021/09/14 00:02:19;;;;;;;;;;;22.90;97.00;22.90;99337.00;;;;348327;27;92490;-89
2021/09/14 00:02:31;;;;;;;;;;;23.00;97.10;22.90;99341.00;;;;348583;27;83501;-90
2021/09/14 00:02:43;;;;;;;;;;;22.90;97.10;22.80;99333.00;;;;345651;28;90330;-90
2021/09/14 00:02:55;;;;;;;;;;;22.90;97.00;22.80;99324.00;;;;345991;28;82323;-90
2021/09/14 00:03:08;;;;;;;;;;;22.90;97.00;23.00;99338.00;;;;348126;27;90604;-90
2021/09/14 00:03:20;;;;;;;;;;;22.90;97.00;23.10;99337.00;;;;347533;28;82600;-90
2021/09/14 00:03:32;;;;;;;;;;;22.90;96.90;23.00;99333.00;;;;347129;28;91331;-89
2021/09/14 00:03:44;;;;;;;;;;;22.90;96.90;23.00;99339.00;;;;348931;27;83416;-90
2021/09/14 00:03:56;;;;;;;;;;;22.90;96.90;23.00;99331.00;;;;347220;28;91926;-89
2021/09/14 00:04:07;;;;;;;;;;;22.90;96.90;23.10;99336.00;;;;346202;28;83507;-89
2021/09/14 00:04:19;;;;;;;;;;;22.90;96.90;23.10;99333.00;;;;345632;28;92750;-90
2021/09/14 00:04:31;;;;;;;;;;;22.90;96.90;22.90;99332.00;;;;347635;28;83506;-90
2021/09/14 00:04:43;;;;;;;;;;;22.90;97.00;22.90;99337.00;;;;346913;27;91655;-89
2021/09/14 00:04:54;;;;;;;;;;;22.90;96.90;22.90;99339.00;;;;345775;28;83489;-89
2021/09/14 00:05:06;;;;;;;;;;;22.90;96.90;22.90;99335.00;;;;345331;28;90193;-90
2021/09/14 00:05:18;;;;;;;;;;;22.90;96.90;22.80;99343.00;;;;348636;27;82575;-89
2021/09/14 00:05:30;;;;;;;;;;;22.90;96.90;22.80;99340.00;;;;347230;28;88978;-89
2021/09/14 00:05:42;;;;;;;;;;;22.90;97.00;22.80;99331.00;;;;344762;28;82523;-89
2021/09/14 00:05:54;;;;;;;;;;;22.90;97.00;22.90;99337.00;;;;348566;27;91288;-89
2021/09/14 00:06:05;;;;;;;;;;;22.90;97.00;22.90;99338.00;;;;347580;28;83375;-90
2021/09/14 00:06:17;;;;;;;;;;;22.90;97.00;22.90;99340.00;;;;345397;28;91864;-89
2021/09/14 00:06:29;;;;;;;;;;;22.90;97.00;23.00;99345.00;;;;346179;28;83474;-90
2021/09/14 00:06:41;;;;;;;;;;;22.90;97.00;22.90;99340.00;;;;344425;28;91876;-89
2021/09/14 00:06:53;;;;;;;;;;;22.90;97.00;22.80;99339.00;;;;346210;28;83368;-89
2021/09/14 00:07:04;;;;;;;;;;;22.90;97.00;22.80;99333.00;;;;347115;28;90196;-89
2021/09/14 00:07:16;;;;;;;;;;;22.90;97.00;22.80;99348.00;;;;346099;28;83388;-89
2021/09/14 00:07:28;;;;;;;;;;;22.90;97.00;22.80;99333.00;;;;345727;28;91150;-89
2021/09/14 00:07:40;;;;;;;;;;;22.80;96.90;22.80;99347.00;;;;344305;28;83537;-90
2021/09/14 00:07:51;;;;;;;;;;;22.80;97.00;22.80;99339.00;;;;345499;28;91370;-89
2021/09/14 00:08:03;;;;;;;;;;;22.90;97.00;22.80;99354.00;;;;351568;27;82467;-89
2021/09/14 00:08:15;;;;;;;;;;;22.90;97.20;22.90;99342.00;;;;345685;28;93018;-90
2021/09/14 00:08:27;;;;;;;;;;;22.80;96.90;22.90;99343.00;;;;348783;27;82558;-89
2021/09/14 00:08:39;;;;;;;;;;;22.90;96.90;22.80;99349.00;;;;348499;27;91374;-90
2021/09/14 00:08:50;;;;;;;;;;;22.90;96.90;22.80;99339.00;;;;347334;28;83593;-89
2021/09/14 00:09:02;;;;;;;;;;;22.90;97.20;22.80;99338.00;;;;345753;28;91383;-89
2021/09/14 00:09:14;;;;;;;;;;;22.90;97.00;22.80;99337.00;;;;347628;28;83521;-89
2021/09/14 00:09:26;;;;;;;;;;;22.90;97.00;22.80;99339.00;;;;346961;28;91209;-89
2021/09/14 00:09:38;;;;;;;;;;;22.90;97.00;22.80;99339.00;;;;347469;28;82475;-89
2021/09/14 00:09:49;;;;;;;;;;;22.90;97.00;22.80;99343.00;;;;347109;28;91323;-90
2021/09/14 00:10:01;;;;;;;;;;;22.80;97.00;22.80;99342.00;;;;346236;28;82472;-90
2021/09/14 00:10:13;;;;;;;;;;;22.80;97.00;22.80;99341.00;;;;344120;28;93034;-89
2021/09/14 00:10:25;;;;;;;;;;;22.80;97.00;22.70;99336.00;;;;348875;27;83553;-89
2021/09/14 00:10:36;;;;;;;;;;;22.80;97.10;22.80;99343.00;;;;348603;27;90378;-89
2021/09/14 00:10:48;;;;;;;;;;;22.80;97.00;22.80;99338.00;;;;348498;27;82558;-89
2021/09/14 00:11:00;;;;;;;;;;;22.80;97.00;22.80;99345.00;;;;345680;28;92029;-90
2021/09/14 00:11:12;;;;;;;;;;;22.80;97.00;22.80;99347.00;;;;347422;28;83466;-90
2021/09/14 00:11:24;;;;;;;;;;;22.80;97.00;22.80;99346.00;;;;345647;28;90404;-89
2021/09/14 00:11:36;;;;;;;;;;;22.80;97.30;22.80;99346.00;;;;346236;28;83422;-90
2021/09/14 00:11:48;;;;;;;;;;;22.80;97.10;22.80;99334.00;;;;347692;27;92141;-90
2021/09/14 00:11:59;;;;;;;;;;;22.80;97.10;22.90;99339.00;;;;345949;28;82610;-89
2021/09/14 00:12:11;;;;;;;;;;;22.80;97.00;22.80;99350.00;;;;348485;27;91944;-90
2021/09/14 00:12:23;;;;;;;;;;;22.80;97.10;22.80;99334.00;;;;350368;27;83407;-89
2021/09/14 00:12:35;;;;;;;;;;;22.80;97.10;22.80;99339.00;;;;348460;27;92042;-89
2021/09/14 00:12:46;;;;;;;;;;;22.80;97.10;22.70;99341.00;;;;347299;28;83514;-89
2021/09/14 00:12:58;;;;;;;;;;;22.80;97.10;22.70;99346.00;;;;345709;28;92232;-89
2021/09/14 00:13:10;;;;;;;;;;;22.80;97.10;22.70;99338.00;;;;345691;28;82581;-90
2021/09/14 00:13:22;;;;;;;;;;;22.80;97.10;22.70;99338.00;;;;344385;28;91888;-90
2021/09/14 00:13:33;;;;;;;;;;;22.80;97.10;22.70;99342.00;;;;344803;28;83393;-89
2021/09/14 00:13:45;;;;;;;;;;;22.70;97.00;22.70;99343.00;;;;346221;28;89077;-89
2021/09/14 00:13:57;;;;;;;;;;;22.70;97.10;22.70;99344.00;;;;346549;28;82451;-90
2021/09/14 00:14:09;;;;;;;;;;;22.70;97.10;22.70;99345.00;;;;347124;28;89007;-89
2021/09/14 00:14:21;;;;;;;;;;;22.80;97.00;22.70;99340.00;;;;345870;28;83541;-90
2021/09/14 00:14:33;;;;;;;;;;;22.70;97.10;22.70;99349.00;;;;344328;28;92038;-89
2021/09/14 00:14:44;;;;;;;;;;;22.70;97.10;22.70;99344.00;;;;347615;28;83346;-89
2021/09/14 00:14:56;;;;;;;;;;;22.70;97.10;22.70;99345.00;;;;347117;28;90476;-89
2021/09/14 00:15:08;;;;;;;;;;;22.80;97.10;22.70;99348.00;;;;347433;28;83486;-90
2021/09/14 00:15:20;;;;;;;;;;;22.70;97.10;22.70;99342.00;;;;347068;28;91476;-89
2021/09/14 00:15:32;;;;;;;;;;;22.70;97.10;22.70;99341.00;;;;348927;27;82617;-89
2021/09/14 00:15:44;;;;;;;;;;;22.70;97.10;22.70;99339.00;;;;348461;27;91922;-89
2021/09/14 00:15:55;;;;;;;;;;;22.70;97.20;22.70;99337.00;;;;347500;28;83322;-89
2021/09/14 00:16:08;;;;;;;;;;;22.70;97.10;22.80;99341.00;;;;344260;28;92744;-89
2021/09/14 00:16:20;;;;;;;;;;;22.70;97.10;22.80;99338.00;;;;346090;28;83331;-89
2021/09/14 00:16:32;;;;;;;;;;;22.70;97.10;22.80;99342.00;;;;345706;28;91847;-89
2021/09/14 00:16:44;;;;;;;;;;;22.70;97.10;22.80;99339.00;;;;347647;27;83428;-90
2021/09/14 00:16:56;;;;;;;;;;;22.70;97.10;22.80;99340.00;;;;346657;28;92065;-89
2021/09/14 00:17:07;;;;;;;;;;;22.70;97.10;22.80;99336.00;;;;345857;28;82410;-89
2021/09/14 00:17:19;;;;;;;;;;;22.70;97.10;22.80;99335.00;;;;347221;28;90225;-89
2021/09/14 00:17:31;;;;;;;;;;;22.70;97.10;22.80;99339.00;;;;347518;28;83330;-90
2021/09/14 00:17:43;;;;;;;;;;;22.70;97.10;22.80;99339.00;;;;346939;28;91040;-89
2021/09/14 00:17:54;;;;;;;;;;;22.70;97.00;22.90;99345.00;;;;347458;27;82595;-89
2021/09/14 00:18:06;;;;;;;;;;;22.70;97.00;22.80;99339.00;;;;345688;28;91517;-89
2021/09/14 00:18:18;;;;;;;;;;;22.80;97.10;22.90;99335.00;;;;347515;28;83587;-90
2021/09/14 00:18:30;;;;;;;;;;;22.70;97.10;22.90;99338.00;;;;347056;28;92272;-89
2021/09/14 00:18:42;;;;;;;;;;;22.70;97.00;22.80;99336.00;;;;349015;27;83400;-90
2021/09/14 00:18:53;;;;;;;;;;;22.70;97.00;22.80;99337.00;;;;349833;27;91337;-90
2021/09/14 00:19:05;;;;;;;;;;;22.70;97.10;22.80;99332.00;;;;346130;28;83453;-90
2021/09/14 00:19:17;;;;;;;;;;;22.70;97.10;22.80;99342.00;;;;346749;27;90223;-89
2021/09/14 00:19:29;;;;;;;;;;;22.70;97.10;22.70;99334.00;;;;348924;27;83466;-89
2021/09/14 00:19:40;;;;;;;;;;;22.70;97.10;22.70;99336.00;;;;346978;27;91157;-90
2021/09/14 00:19:52;;;;;;;;;;;22.70;97.10;22.80;99338.00;;;;346827;28;83954;-90
2021/09/14 00:20:05;;;;;;;;;;;22.70;97.10;22.80;99342.00;;;;346871;28;94988;-90
2021/09/14 00:20:17;;;;;;;;;;;22.70;97.10;22.70;99338.00;;;;347602;28;82530;-89
2021/09/14 00:20:29;;;;;;;;;;;22.70;97.10;22.70;99336.00;;;;348410;27;90203;-89
2021/09/14 00:20:40;;;;;;;;;;;22.70;97.10;22.70;99340.00;;;;346312;28;83357;-89
2021/09/14 00:20:52;;;;;;;;;;;22.70;97.10;22.80;99338.00;;;;347079;28;90536;-89
2021/09/14 00:21:04;;;;;;;;;;;22.70;97.10;22.80;99339.00;;;;347494;28;83422;-89
2021/09/14 00:21:16;;;;;;;;;;;22.70;97.10;22.80;99335.00;;;;347156;28;91434;-89
2021/09/14 00:21:28;;;;;;;;;;;22.70;97.10;22.70;99344.00;;;;348871;27;83362;-89
2021/09/14 00:21:40;;;;;;;;;;;22.70;97.10;22.70;99344.00;;;;346906;28;89638;-89
2021/09/14 00:21:51;;;;;;;;;;;22.70;97.10;22.70;99340.00;;;;348835;27;83393;-89
2021/09/14 00:22:03;;;;;;;;;;;22.70;97.10;22.70;99334.00;;;;348467;27;92767;-89
2021/09/14 00:22:15;;;;;;;;;;;22.70;97.10;22.70;99339.00;;;;347590;28;82496;-89
2021/09/14 00:22:27;;;;;;;;;;;22.70;97.10;22.70;99343.00;;;;347004;28;91141;-89
2021/09/14 00:22:38;;;;;;;;;;;22.70;97.10;22.70;99344.00;;;;346142;28;84049;-89
2021/09/14 00:22:50;;;;;;;;;;;22.70;97.00;22.70;99346.00;;;;347795;27;90508;-89
2021/09/14 00:23:03;;;;;;;;;;;22.70;97.00;22.70;99343.00;;;;345991;28;82662;-90
2021/09/14 00:23:14;;;;;;;;;;;22.70;97.10;22.70;99345.00;;;;345734;28;90982;-89
2021/09/14 00:23:26;;;;;;;;;;;22.70;97.10;22.70;99346.00;;;;346176;28;83372;-89
2021/09/14 00:23:38;;;;;;;;;;;22.70;97.10;22.60;99339.00;;;;345730;28;90390;-89
2021/09/14 00:23:50;;;;;;;;;;;22.70;97.10;22.60;99339.00;;;;347461;28;82572;-89
2021/09/14 00:24:02;;;;;;;;;;;22.60;97.10;22.60;99337.00;;;;345700;28;91256;-90
2021/09/14 00:24:13;;;;;;;;;;;22.60;97.10;22.70;99344.00;;;;344780;28;83129;-89
2021/09/14 00:24:25;;;;;;;;;;;22.60;97.00;22.70;99345.00;;;;344279;28;91080;-89
2021/09/14 00:24:37;;;;;;;;;;;22.70;97.10;22.70;99338.00;;;;347575;28;83543;-89
2021/09/14 00:24:49;;;;;;;;;;;22.60;97.00;22.70;99338.00;;;;345796;28;88828;-89
2021/09/14 00:25:00;;;;;;;;;;;22.70;97.10;22.70;99339.00;;;;344752;28;82568;-89
2021/09/14 00:25:12;;;;;;;;;;;22.60;97.10;22.70;99342.00;;;;345672;28;91660;-89
2021/09/14 00:25:24;;;;;;;;;;;22.60;97.00;22.70;99341.00;;;;345882;28;83484;-90
2021/09/14 00:25:36;;;;;;;;;;;22.70;97.10;22.70;99342.00;;;;347054;28;91116;-89
2021/09/14 00:25:48;;;;;;;;;;;22.70;97.10;22.70;99344.00;;;;346904;27;82669;-89
2021/09/14 00:25:59;;;;;;;;;;;22.60;97.10;22.70;99345.00;;;;344025;28;92316;-89
2021/09/14 00:26:12;;;;;;;;;;;22.70;97.10;22.70;99347.00;;;;346127;28;83421;-89
2021/09/14 00:26:24;;;;;;;;;;;22.70;97.10;22.70;99339.00;;;;345670;28;90266;-89
2021/09/14 00:26:36;;;;;;;;;;;22.60;97.00;22.70;99339.00;;;;346064;28;83510;-89
2021/09/14 00:26:47;;;;;;;;;;;22.60;97.00;22.70;99337.00;;;;348363;27;91325;-89
2021/09/14 00:26:59;;;;;;;;;;;22.60;97.00;22.60;99338.00;;;;344882;28;83392;-89
2021/09/14 00:27:11;;;;;;;;;;;22.70;97.20;22.60;99342.00;;;;345640;28;91971;-89
2021/09/14 00:27:23;;;;;;;;;;;22.60;97.20;22.60;99343.00;;;;346162;28;82507;-89
2021/09/14 00:27:35;;;;;;;;;;;22.60;97.10;22.60;99344.00;;;;347067;28;91565;-88
2021/09/14 00:27:46;;;;;;;;;;;22.60;97.10;22.70;99347.00;;;;346094;28;83455;-89
2021/09/14 00:27:58;;;;;;;;;;;22.70;97.10;22.70;99335.00;;;;344183;28;93327;-89
2021/09/14 00:28:10;;;;;;;;;;;22.60;97.10;22.70;99337.00;;;;343410;28;83432;-89
2021/09/14 00:28:22;;;;;;;;;;;22.70;97.10;22.70;99344.00;;;;344376;28;91574;-89
2021/09/14 00:28:33;;;;;;;;;;;22.60;97.10;22.70;99338.00;;;;347472;28;82625;-89
2021/09/14 00:28:45;;;;;;;;;;;22.60;97.10;22.60;99334.00;;;;344589;28;91222;-89
2021/09/14 00:28:57;;;;;;;;;;;22.60;97.20;22.70;99335.00;;;;344771;28;83405;-89
2021/09/14 00:29:09;;;;;;;;;;;22.70;97.20;22.70;99337.00;;;;345515;28;91567;-89
2021/09/14 00:29:21;;;;;;;;;;;22.70;97.10;22.80;99335.00;;;;343602;28;82415;-90
2021/09/14 00:29:33;;;;;;;;;;;22.70;97.10;22.80;99333.00;;;;345771;28;91371;-90
2021/09/14 00:29:44;;;;;;;;;;;22.60;97.10;22.80;99328.00;;;;347426;28;83575;-89
2021/09/14 00:29:56;;;;;;;;;;;22.70;97.10;22.80;99334.00;;;;345634;28;92265;-89
2021/09/14 00:30:08;;;;;;;;;;;22.70;97.00;22.80;99329.00;;;;346100;28;83463;-89
2021/09/14 00:30:20;;;;;;;;;;;22.60;97.00;22.90;99338.00;;;;345672;28;91533;-89
2021/09/14 00:30:32;;;;;;;;;;;22.70;97.00;22.80;99337.00;;;;344795;28;82495;-90
2021/09/14 00:30:44;;;;;;;;;;;22.70;97.00;22.80;99335.00;;;;345706;28;91511;-89
2021/09/14 00:30:56;;;;;;;;;;;22.70;97.00;22.80;99329.00;;;;344860;28;83256;-89
2021/09/14 00:31:07;;;;;;;;;;;22.70;97.10;22.70;99333.00;;;;345603;28;91416;-89
2021/09/14 00:31:19;;;;;;;;;;;22.60;97.00;22.70;99331.00;;;;346142;28;83416;-89
2021/09/14 00:31:32;;;;;;;;;;;22.60;97.00;22.70;99328.00;;;;345765;28;90715;-89
2021/09/14 00:31:44;;;;;;;;;;;22.60;97.00;22.70;99335.00;;;;346964;27;82491;-89
2021/09/14 00:31:56;;;;;;;;;;;22.70;97.00;22.80;99327.00;;;;345547;28;91348;-90
2021/09/14 00:32:08;;;;;;;;;;;22.60;96.90;22.80;99331.00;;;;346068;28;83503;-89
2021/09/14 00:32:20;;;;;;;;;;;22.70;97.00;22.80;99332.00;;;;344251;28;88649;-89
2021/09/14 00:32:31;;;;;;;;;;;22.60;97.00;22.80;99332.00;;;;344822;28;83523;-89
2021/09/14 00:32:43;;;;;;;;;;;22.60;97.00;22.70;99331.00;;;;345583;28;90230;-89
2021/09/14 00:32:55;;;;;;;;;;;22.70;97.10;22.70;99324.00;;;;347605;28;83337;-89
2021/09/14 00:33:07;;;;;;;;;;;22.70;97.10;22.70;99334.00;;;;345615;28;91443;-89
2021/09/14 00:33:19;;;;;;;;;;;22.60;97.00;22.60;99329.00;;;;347544;28;83335;-90
2021/09/14 00:33:31;;;;;;;;;;;22.70;97.10;22.70;99329.00;;;;347082;28;92016;-90
2021/09/14 00:33:42;;;;;;;;;;;22.70;97.10;22.70;99333.00;;;;346174;28;83402;-89
2021/09/14 00:33:54;;;;;;;;;;;22.60;97.10;22.60;99326.00;;;;346952;28;92379;-89
2021/09/14 00:34:06;;;;;;;;;;;22.60;97.10;22.60;99328.00;;;;347414;28;83479;-89
2021/09/14 00:34:18;;;;;;;;;;;22.60;97.10;22.70;99334.00;;;;345439;28;90228;-89
2021/09/14 00:34:29;;;;;;;;;;;22.60;97.00;22.70;99329.00;;;;347408;28;83430;-90
2021/09/14 00:34:41;;;;;;;;;;;22.60;97.10;22.60;99335.00;;;;345667;28;88783;-90
2021/09/14 00:34:53;;;;;;;;;;;22.60;97.10;22.60;99324.00;;;;346980;28;83435;-90
2021/09/14 00:35:05;;;;;;;;;;;22.60;97.10;22.60;99332.00;;;;344302;28;90193;-89
2021/09/14 00:35:17;;;;;;;;;;;22.60;97.20;22.60;99334.00;;;;347073;28;83585;-90
2021/09/14 00:35:29;;;;;;;;;;;22.60;97.20;22.60;99333.00;;;;347152;28;90324;-89
2021/09/14 00:35:41;;;;;;;;;;;22.60;97.10;22.60;99333.00;;;;346107;28;83431;-89
2021/09/14 00:35:52;;;;;;;;;;;22.60;97.10;22.60;99335.00;;;;345395;28;90342;-89
2021/09/14 00:36:04;;;;;;;;;;;22.50;97.10;22.50;99329.00;;;;346092;28;83038;-90
2021/09/14 00:36:16;;;;;;;;;;;22.60;97.10;22.50;99331.00;;;;345816;28;90112;-90
2021/09/14 00:36:28;;;;;;;;;;;22.60;97.10;22.50;99333.00;;;;347393;28;82609;-89
2021/09/14 00:36:39;;;;;;;;;;;22.50;97.10;22.50;99330.00;;;;345591;28;90393;-89
2021/09/14 00:36:51;;;;;;;;;;;22.50;97.10;22.50;99331.00;;;;348644;27;83446;-89
2021/09/14 00:37:04;;;;;;;;;;;22.50;97.10;22.60;99329.00;;;;344339;28;90194;-89
2021/09/14 00:37:16;;;;;;;;;;;22.50;97.10;22.60;99323.00;;;;344684;28;83552;-89
2021/09/14 00:37:27;;;;;;;;;;;22.50;97.10;22.60;99328.00;;;;348263;27;90165;-89
2021/09/14 00:37:39;;;;;;;;;;;22.50;97.10;22.60;99321.00;;;;347502;27;83304;-89
2021/09/14 00:37:51;;;;;;;;;;;22.50;97.10;22.50;99328.00;;;;346756;27;92256;-89
2021/09/14 00:38:03;;;;;;;;;;;22.50;97.10;22.50;99332.00;;;;347398;28;82597;-89
2021/09/14 00:38:15;;;;;;;;;;;22.50;97.10;22.60;99329.00;;;;349788;27;91824;-89
2021/09/14 00:38:27;;;;;;;;;;;22.50;97.00;22.60;99333.00;;;;347484;27;82520;-89
2021/09/14 00:38:39;;;;;;;;;;;22.50;97.00;22.60;99334.00;;;;345740;28;90161;-89
2021/09/14 00:38:51;;;;;;;;;;;22.50;97.00;22.50;99328.00;;;;347282;28;83433;-89
2021/09/14 00:39:03;;;;;;;;;;;22.50;97.10;22.50;99338.00;;;;347017;27;91204;-89
2021/09/14 00:39:14;;;;;;;;;;;22.50;97.10;22.50;99332.00;;;;348644;27;83400;-90
2021/09/14 00:39:26;;;;;;;;;;;22.50;97.10;22.50;99334.00;;;;347081;28;91658;-89
2021/09/14 00:39:38;;;;;;;;;;;22.50;97.10;22.50;99329.00;;;;347452;28;83947;-90
2021/09/14 00:39:50;;;;;;;;;;;22.50;97.10;22.60;99333.00;;;;346893;28;93343;-89
2021/09/14 00:40:02;;;;;;;;;;;22.50;97.10;22.60;99332.00;;;;347549;27;83343;-90
2021/09/14 00:40:13;;;;;;;;;;;22.50;97.20;22.60;99339.00;;;;347087;28;91564;-89
2021/09/14 00:40:25;;;;;;;;;;;22.50;97.10;22.60;99329.00;;;;344728;28;83423;-89
2021/09/14 00:40:37;;;;;;;;;;;22.50;97.10;22.60;99338.00;;;;345722;28;91849;-90
2021/09/14 00:40:49;;;;;;;;;;;22.50;97.10;22.60;99334.00;;;;346926;27;83637;-90
2021/09/14 00:41:01;;;;;;;;;;;22.50;97.10;22.70;99335.00;;;;346026;28;92028;-89
2021/09/14 00:41:12;;;;;;;;;;;22.50;97.10;22.70;99328.00;;;;346025;28;83512;-90
2021/09/14 00:41:24;;;;;;;;;;;22.50;97.20;22.80;99338.00;;;;346945;28;90103;-89
2021/09/14 00:41:36;;;;;;;;;;;22.50;97.20;22.80;99337.00;;;;346188;28;83518;-89
2021/09/14 00:41:48;;;;;;;;;;;22.50;97.20;22.80;99338.00;;;;346747;28;92436;-90
2021/09/14 00:41:59;;;;;;;;;;;22.60;97.20;22.90;99339.00;;;;346184;28;83274;-89
2021/09/14 00:42:11;;;;;;;;;;;22.50;97.10;22.70;99331.00;;;;347106;28;91946;-89
2021/09/14 00:42:23;;;;;;;;;;;22.60;97.10;22.60;99333.00;;;;347513;27;83499;-89
2021/09/14 00:42:35;;;;;;;;;;;22.60;97.10;22.60;99339.00;;;;345661;28;92191;-89
2021/09/14 00:42:47;;;;;;;;;;;22.60;97.20;22.50;99335.00;;;;346157;28;83408;-89
2021/09/14 00:42:59;;;;;;;;;;;22.60;97.10;22.60;99330.00;;;;347159;28;91851;-89
2021/09/14 00:43:20;;;;;;;;;;;22.60;97.10;22.70;99330.00;;;;347487;27;83391;-90
2021/09/14 00:43:32;;;;;;;;;;;22.60;97.10;22.70;99335.00;;;;344443;28;89284;-89
2021/09/14 00:43:54;;;;;;;;;;;22.60;97.10;22.60;99341.00;;;;345982;28;82472;-89
2021/09/14 00:44:06;;;;;;;;;;;22.60;97.00;22.60;99330.00;;;;346691;28;92830;-89
2021/09/14 00:44:18;;;;;;;;;;;22.60;97.00;22.60;99332.00;;;;348291;27;83548;-90
2021/09/14 00:44:29;;;;;;;;;;;22.60;97.00;22.60;99330.00;;;;345752;28;89480;-89
2021/09/14 00:44:42;;;;;;;;;;;22.60;97.10;22.60;99329.00;;;;347450;28;83414;-89
2021/09/14 00:44:53;;;;;;;;;;;22.50;97.00;22.60;99333.00;;;;345742;28;90102;-89
2021/09/14 00:45:06;;;;;;;;;;;22.60;97.10;22.50;99338.00;;;;344761;28;83383;-89
2021/09/14 00:45:17;;;;;;;;;;;22.50;97.10;22.50;99335.00;;;;344315;28;91441;-89
2021/09/14 00:45:29;;;;;;;;;;;22.50;97.10;22.50;99335.00;;;;344839;28;83262;-89
2021/09/14 00:45:41;;;;;;;;;;;22.50;97.10;22.60;99338.00;;;;345707;28;90268;-89
2021/09/14 00:45:53;;;;;;;;;;;22.60;97.10;22.70;99335.00;;;;346148;28;83505;-90
2021/09/14 00:46:05;;;;;;;;;;;22.50;97.10;22.70;99331.00;;;;345571;28;90081;-89
2021/09/14 00:46:16;;;;;;;;;;;22.60;97.10;22.70;99337.00;;;;344584;28;83581;-89
2021/09/14 00:46:29;;;;;;;;;;;22.50;97.00;22.60;99337.00;;;;345548;28;92212;-89
2021/09/14 00:46:40;;;;;;;;;;;22.60;97.10;22.60;99330.00;;;;344785;28;83320;-89
2021/09/14 00:46:52;;;;;;;;;;;22.60;97.00;22.50;99335.00;;;;344149;28;91180;-90
2021/09/14 00:47:04;;;;;;;;;;;22.50;97.00;22.50;99335.00;;;;347260;28;83126;-89
2021/09/14 00:47:16;;;;;;;;;;;22.50;97.10;22.50;99339.00;;;;346353;28;92751;-89
2021/09/14 00:47:28;;;;;;;;;;;22.50;97.10;22.50;99338.00;;;;350248;27;82544;-89
2021/09/14 00:47:40;;;;;;;;;;;22.50;97.10;22.50;99342.00;;;;345749;28;91769;-90
2021/09/14 00:47:51;;;;;;;;;;;22.50;97.10;22.50;99340.00;;;;348313;27;83581;-89
2021/09/14 00:48:04;;;;;;;;;;;22.50;97.30;22.50;99337.00;;;;349843;27;90219;-90
2021/09/14 00:48:15;;;;;;;;;;;22.50;97.10;22.50;99328.00;;;;346108;28;83420;-90
2021/09/14 00:48:27;;;;;;;;;;;22.50;97.10;22.60;99333.00;;;;345401;28;90089;-87
2021/09/14 00:48:39;;;;;;;;;;;22.50;97.00;22.60;99333.00;;;;347641;28;82560;-89
2021/09/14 00:48:51;;;;;;;;;;;22.50;97.00;22.60;99331.00;;;;347055;28;90272;-89
2021/09/14 00:49:03;;;;;;;;;;;22.50;97.00;22.60;99334.00;;;;346057;28;83425;-90
2021/09/14 00:49:15;;;;;;;;;;;22.50;97.00;22.60;99336.00;;;;347078;28;91184;-89
2021/09/14 00:49:26;;;;;;;;;;;22.50;97.00;22.60;99329.00;;;;343487;28;83496;-89
2021/09/14 00:49:38;;;;;;;;;;;22.50;97.00;22.60;99335.00;;;;347100;28;91609;-89
2021/09/14 00:49:50;;;;;;;;;;;22.50;97.00;22.50;99334.00;;;;345753;28;83520;-89
2021/09/14 00:50:03;;;;;;;;;;;22.50;97.00;22.60;99333.00;;;;346996;28;90051;-90
2021/09/14 00:50:15;;;;;;;;;;;22.50;97.00;22.60;99330.00;;;;345972;28;83349;-90
2021/09/14 00:50:27;;;;;;;;;;;22.50;97.00;22.60;99332.00;;;;346877;28;89026;-89
2021/09/14 00:50:39;;;;;;;;;;;22.50;97.00;22.60;99332.00;;;;344715;28;83507;-89
2021/09/14 00:50:51;;;;;;;;;;;22.50;97.00;22.60;99332.00;;;;348245;27;90168;-90
2021/09/14 00:51:03;;;;;;;;;;;22.50;97.10;22.60;99332.00;;;;346171;28;82342;-89
2021/09/14 00:51:14;;;;;;;;;;;22.50;97.00;22.60;99331.00;;;;348456;27;91241;-89
2021/09/14 00:51:26;;;;;;;;;;;22.50;97.00;22.50;99334.00;;;;346165;28;83453;-89
2021/09/14 00:51:38;;;;;;;;;;;22.50;97.10;22.50;99323.00;;;;347148;28;90557;-89
2021/09/14 00:51:50;;;;;;;;;;;22.50;97.10;22.50;99326.00;;;;345981;28;83377;-90
2021/09/14 00:52:01;;;;;;;;;;;22.50;97.10;22.50;99325.00;;;;345387;28;91511;-89
2021/09/14 00:52:13;;;;;;;;;;;22.50;97.10;22.60;99329.00;;;;347597;28;83381;-90
2021/09/14 00:52:25;;;;;;;;;;;22.50;97.10;22.60;99334.00;;;;347000;28;91752;-89
2021/09/14 00:52:37;;;;;;;;;;;22.50;97.20;22.70;99331.00;;;;347509;28;83351;-89
2021/09/14 00:52:49;;;;;;;;;;;22.50;97.20;22.70;99333.00;;;;349116;27;90564;-89
2021/09/14 00:53:00;;;;;;;;;;;22.50;97.20;22.70;99326.00;;;;347415;28;82488;-90
2021/09/14 00:53:13;;;;;;;;;;;22.50;97.10;22.60;99324.00;;;;346917;28;90702;-89
2021/09/14 00:53:25;;;;;;;;;;;22.50;97.10;22.70;99321.00;;;;348865;27;82617;-90
2021/09/14 00:53:37;;;;;;;;;;;22.50;97.10;22.70;99322.00;;;;346886;28;91372;-89
2021/09/14 00:53:49;;;;;;;;;;;22.50;97.10;22.70;99330.00;;;;348759;27;83587;-89
2021/09/14 00:54:01;;;;;;;;;;;22.50;97.10;22.70;99331.00;;;;348401;27;92747;-89
2021/09/14 00:54:14;;;;;;;;;;;22.50;97.10;22.70;99338.00;;;;346080;28;82534;-89
2021/09/14 00:54:25;;;;;;;;;;;22.50;97.00;22.70;99326.00;;;;346962;28;91335;-89
2021/09/14 00:54:38;;;;;;;;;;;22.50;97.00;22.60;99324.00;;;;346211;28;83474;-89
2021/09/14 00:54:50;;;;;;;;;;;22.50;97.00;22.60;99326.00;;;;345605;28;91362;-89
2021/09/14 00:55:05;;;;;;;;;;;22.50;97.00;22.60;99333.00;;;;345997;28;82571;-89
2021/09/14 00:55:17;;;;;;;;;;;22.50;97.00;22.70;99327.00;;;;344337;28;91075;-89
2021/09/14 00:55:29;;;;;;;;;;;22.50;97.00;22.70;99324.00;;;;347496;28;82499;-89
2021/09/14 00:55:41;;;;;;;;;;;22.50;96.90;22.60;99326.00;;;;346913;28;90456;-89
2021/09/14 00:55:53;;;;;;;;;;;22.50;96.90;22.60;99317.00;;;;345420;28;83297;-89
2021/09/14 00:56:05;;;;;;;;;;;22.50;96.90;22.60;99317.00;;;;345573;28;93546;-89
2021/09/14 00:56:17;;;;;;;;;;;22.60;96.90;22.60;99320.00;;;;345763;28;82460;-89
2021/09/14 00:56:29;;;;;;;;;;;22.50;96.90;22.60;99324.00;;;;348266;27;90592;-90
2021/09/14 00:56:41;;;;;;;;;;;22.50;96.90;22.60;99319.00;;;;346071;28;83477;-89
2021/09/14 00:56:55;;;;;;;;;;;22.60;96.90;22.60;99319.00;;;;347034;28;90243;-90
2021/09/14 00:57:07;;;;;;;;;;;22.50;96.90;22.60;99326.00;;;;346087;28;82544;-89
2021/09/14 00:57:18;;;;;;;;;;;22.50;96.90;22.60;99320.00;;;;345720;28;90521;-90
2021/09/14 00:57:30;;;;;;;;;;;22.50;96.90;22.60;99329.00;;;;347556;27;83528;-89
2021/09/14 00:57:42;;;;;;;;;;;22.50;96.90;22.60;99320.00;;;;348111;27;90523;-89
2021/09/14 00:57:54;;;;;;;;;;;22.50;96.90;22.60;99323.00;;;;346030;28;83473;-89
2021/09/14 00:58:06;;;;;;;;;;;22.50;96.90;22.60;99328.00;;;;345569;28;92493;-89
2021/09/14 00:58:17;;;;;;;;;;;22.50;97.00;22.60;99326.00;;;;346118;28;83512;-90
2021/09/14 00:58:30;;;;;;;;;;;22.50;97.00;22.70;99317.00;;;;346946;27;91441;-89
2021/09/14 00:58:42;;;;;;;;;;;22.50;97.00;22.70;99318.00;;;;347386;27;83547;-89
2021/09/14 00:58:54;;;;;;;;;;;22.50;97.00;22.60;99330.00;;;;343642;28;91387;-89
2021/09/14 00:59:06;;;;;;;;;;;22.60;97.00;22.60;99320.00;;;;346094;28;83516;-89